CPX671 Details

Departure: Tallahassee International Airport (KTLH)
Arrival: Miami International Airport (KMIA)
Route: HEVVN NICKI JUULI SSCOT5


Current Weather Information
KTLH 250253Z 00000KT 10SM CLR 24/17 A3010 RMK AO2 SLP191 T02440172 51009
KMIA 250253Z 07010KT 10SM FEW039 26/18 A3009 RMK AO2 SLP190 T02610178 53011